sensor_id;sensor_type;location;lat;lon;timestamp;pressure;altitude;pressure_sealevel;temperature;humidity
42433;BME280;28071;48.232;20.668;2023-05-27T00:03:45;99943.00;;;17.13;96.43
42433;BME280;28071;48.232;20.668;2023-05-27T00:08:46;99945.78;;;17.18;95.92
42433;BME280;28071;48.232;20.668;2023-05-27T00:13:46;99946.50;;;17.13;96.92
42433;BME280;28071;48.232;20.668;2023-05-27T00:18:47;99939.16;;;17.04;98.18
42433;BME280;28071;48.232;20.668;2023-05-27T00:23:51;99913.84;;;16.78;99.28
42433;BME280;28071;48.232;20.668;2023-05-27T00:28:52;99946.59;;;16.97;100.00
42433;BME280;28071;48.232;20.668;2023-05-27T00:33:53;99939.56;;;16.74;100.00
42433;BME280;28071;48.232;20.668;2023-05-27T00:38:53;99943.97;;;16.63;100.00
42433;BME280;28071;48.232;20.668;2023-05-27T00:43:55;99930.00;;;16.44;100.00
42433;BME280;28071;48.232;20.668;2023-05-27T00:48:56;99941.56;;;16.45;100.00
42433;BME280;28071;48.232;20.668;2023-05-27T00:53:56;99942.44;;;16.50;100.00
42433;BME280;28071;48.232;20.668;2023-05-27T00:58:57;99936.00;;;16.51;100.00
42433;BME280;28071;48.232;20.668;2023-05-27T01:03:57;99935.84;;;16.58;99.62
42433;BME280;28071;48.232;20.668;2023-05-27T01:09:08;99933.06;;;16.53;100.00
42433;BME280;28071;48.232;20.668;2023-05-27T01:14:11;99914.69;;;16.45;99.38
42433;BME280;28071;48.232;20.668;2023-05-27T01:19:27;99898.03;;;16.43;100.00
42433;BME280;28071;48.232;20.668;2023-05-27T01:24:31;99920.97;;;16.50;99.45
42433;BME280;28071;48.232;20.668;2023-05-27T01:29:31;99915.69;;;16.55;99.20
42433;BME280;28071;48.232;20.668;2023-05-27T01:39:58;99919.50;;;16.43;99.61
42433;BME280;28071;48.232;20.668;2023-05-27T01:44:59;99904.91;;;16.33;98.41
42433;BME280;28071;48.232;20.668;2023-05-27T01:50:01;99897.91;;;16.32;98.63
42433;BME280;28071;48.232;20.668;2023-05-27T01:55:01;99908.44;;;16.56;97.15
42433;BME280;28071;48.232;20.668;2023-05-27T02:00:03;99910.56;;;16.37;98.55
42433;BME280;28071;48.232;20.668;2023-05-27T02:05:05;99905.19;;;16.37;96.74
42433;BME280;28071;48.232;20.668;2023-05-27T02:10:07;99899.47;;;16.50;94.32
42433;BME280;28071;48.232;20.668;2023-05-27T02:15:08;99914.88;;;16.38;95.74
42433;BME280;28071;48.232;20.668;2023-05-27T02:20:09;99918.63;;;16.37;96.51
42433;BME280;28071;48.232;20.668;2023-05-27T02:25:10;99918.66;;;16.20;96.77
42433;BME280;28071;48.232;20.668;2023-05-27T02:30:11;99917.59;;;16.21;95.01
42433;BME280;28071;48.232;20.668;2023-05-27T02:35:14;99918.31;;;16.17;94.60
42433;BME280;28071;48.232;20.668;2023-05-27T02:40:25;99921.09;;;16.05;94.34
42433;BME280;28071;48.232;20.668;2023-05-27T02:45:26;99923.44;;;16.01;92.06
42433;BME280;28071;48.232;20.668;2023-05-27T02:50:27;99900.50;;;15.94;89.31
42433;BME280;28071;48.232;20.668;2023-05-27T02:55:27;99904.75;;;15.90;89.34
42433;BME280;28071;48.232;20.668;2023-05-27T03:00:28;99920.50;;;15.86;89.18
42433;BME280;28071;48.232;20.668;2023-05-27T03:05:28;99919.53;;;15.75;89.95
42433;BME280;28071;48.232;20.668;2023-05-27T03:10:29;99926.06;;;15.79;89.26
42433;BME280;28071;48.232;20.668;2023-05-27T03:15:29;99931.41;;;15.79;88.94
42433;BME280;28071;48.232;20.668;2023-05-27T03:20:30;99932.63;;;15.72;88.54
42433;BME280;28071;48.232;20.668;2023-05-27T03:25:30;99943.50;;;15.65;90.06
42433;BME280;28071;48.232;20.668;2023-05-27T03:30:30;99942.19;;;15.68;88.62
42433;BME280;28071;48.232;20.668;2023-05-27T03:35:31;99942.69;;;15.65;88.95
42433;BME280;28071;48.232;20.668;2023-05-27T03:40:31;99958.78;;;15.53;89.21
42433;BME280;28071;48.232;20.668;2023-05-27T03:45:32;99946.59;;;15.45;89.35
42433;BME280;28071;48.232;20.668;2023-05-27T03:50:33;99913.72;;;15.21;92.28
42433;BME280;28071;48.232;20.668;2023-05-27T03:55:34;99952.19;;;15.44;89.90
42433;BME280;28071;48.232;20.668;2023-05-27T04:00:34;99953.19;;;15.54;91.47
42433;BME280;28071;48.232;20.668;2023-05-27T04:05:39;99955.78;;;15.49;91.94
42433;BME280;28071;48.232;20.668;2023-05-27T04:10:39;99963.75;;;15.73;90.10
42433;BME280;28071;48.232;20.668;2023-05-27T04:15:40;99962.28;;;15.82;88.81
42433;BME280;28071;48.232;20.668;2023-05-27T04:20:41;99962.72;;;15.91;86.95
42433;BME280;28071;48.232;20.668;2023-05-27T04:25:42;99969.81;;;16.14;84.91
42433;BME280;28071;48.232;20.668;2023-05-27T04:30:43;99970.44;;;16.21;83.13
42433;BME280;28071;48.232;20.668;2023-05-27T04:35:43;99972.72;;;16.29;85.08
42433;BME280;28071;48.232;20.668;2023-05-27T04:40:44;99967.34;;;16.29;84.31
42433;BME280;28071;48.232;20.668;2023-05-27T04:45:52;99975.34;;;16.41;85.05
42433;BME280;28071;48.232;20.668;2023-05-27T04:50:53;99976.38;;;16.56;84.33
42433;BME280;28071;48.232;20.668;2023-05-27T04:55:53;99979.69;;;16.63;83.43
42433;BME280;28071;48.232;20.668;2023-05-27T05:00:54;99983.50;;;16.68;83.79
42433;BME280;28071;48.232;20.668;2023-05-27T05:05:57;99991.97;;;16.76;83.73
42433;BME280;28071;48.232;20.668;2023-05-27T05:10:57;99990.75;;;16.84;80.53
42433;BME280;28071;48.232;20.668;2023-05-27T05:15:58;99994.00;;;16.86;79.94
42433;BME280;28071;48.232;20.668;2023-05-27T05:20:58;99995.69;;;16.92;80.74
42433;BME280;28071;48.232;20.668;2023-05-27T05:25:58;99991.53;;;17.01;79.21
42433;BME280;28071;48.232;20.668;2023-05-27T05:31:06;99985.19;;;16.90;77.44
42433;BME280;28071;48.232;20.668;2023-05-27T05:36:07;99983.41;;;16.96;79.37
42433;BME280;28071;48.232;20.668;2023-05-27T05:41:07;100001.34;;;17.12;79.31
42433;BME280;28071;48.232;20.668;2023-05-27T05:46:08;100007.09;;;17.21;78.63
42433;BME280;28071;48.232;20.668;2023-05-27T05:51:08;100009.03;;;17.26;76.91
42433;BME280;28071;48.232;20.668;2023-05-27T05:56:09;100019.41;;;17.39;78.49
42433;BME280;28071;48.232;20.668;2023-05-27T06:01:10;100009.84;;;17.48;76.54
42433;BME280;28071;48.232;20.668;2023-05-27T06:06:11;100017.00;;;17.64;74.30
42433;BME280;28071;48.232;20.668;2023-05-27T06:11:12;100003.41;;;17.71;72.77
42433;BME280;28071;48.232;20.668;2023-05-27T06:16:12;100006.25;;;17.64;71.92
42433;BME280;28071;48.232;20.668;2023-05-27T06:21:12;100030.53;;;17.91;71.51
42433;BME280;28071;48.232;20.668;2023-05-27T06:26:14;100040.63;;;18.06;70.92
42433;BME280;28071;48.232;20.668;2023-05-27T06:31:14;100036.94;;;18.17;69.83
42433;BME280;28071;48.232;20.668;2023-05-27T06:36:15;100049.53;;;18.39;68.95
42433;BME280;28071;48.232;20.668;2023-05-27T06:41:15;100042.53;;;18.43;68.85
42433;BME280;28071;48.232;20.668;2023-05-27T06:46:16;100044.00;;;18.55;69.66
42433;BME280;28071;48.232;20.668;2023-05-27T06:51:17;100024.38;;;18.65;69.94
42433;BME280;28071;48.232;20.668;2023-05-27T06:56:17;100041.59;;;18.91;69.51
42433;BME280;28071;48.232;20.668;2023-05-27T07:01:18;100034.66;;;19.05;65.61
42433;BME280;28071;48.232;20.668;2023-05-27T07:06:18;100052.06;;;19.35;64.50
42433;BME280;28071;48.232;20.668;2023-05-27T07:11:19;100053.00;;;19.71;61.36
42433;BME280;28071;48.232;20.668;2023-05-27T07:16:20;100051.00;;;20.44;61.01
42433;BME280;28071;48.232;20.668;2023-05-27T07:21:21;100052.00;;;21.04;57.19
42433;BME280;28071;48.232;20.668;2023-05-27T07:26:21;100048.41;;;21.40;54.77
42433;BME280;28071;48.232;20.668;2023-05-27T07:31:22;100059.13;;;21.65;53.31
42433;BME280;28071;48.232;20.668;2023-05-27T07:36:22;100047.47;;;21.70;51.58
42433;BME280;28071;48.232;20.668;2023-05-27T07:41:22;100048.72;;;21.82;51.87
42433;BME280;28071;48.232;20.668;2023-05-27T07:46:24;100057.56;;;22.03;48.51
42433;BME280;28071;48.232;20.668;2023-05-27T07:51:25;100054.19;;;22.22;48.11
42433;BME280;28071;48.232;20.668;2023-05-27T07:56:25;100050.94;;;22.25;48.61
42433;BME280;28071;48.232;20.668;2023-05-27T08:01:26;100054.44;;;22.59;48.29
42433;BME280;28071;48.232;20.668;2023-05-27T08:06:30;100035.91;;;23.01;46.22
42433;BME280;28071;48.232;20.668;2023-05-27T08:11:34;100036.31;;;23.13;44.87
42433;BME280;28071;48.232;20.668;2023-05-27T08:16:34;100040.44;;;23.53;44.88
42433;BME280;28071;48.232;20.668;2023-05-27T08:21:35;100036.84;;;23.34;43.05
42433;BME280;28071;48.232;20.668;2023-05-27T08:26:36;100037.59;;;23.20;43.74
42433;BME280;28071;48.232;20.668;2023-05-27T08:31:36;100034.91;;;23.39;43.24
42433;BME280;28071;48.232;20.668;2023-05-27T08:36:38;100041.09;;;23.45;41.11
42433;BME280;28071;48.232;20.668;2023-05-27T08:41:39;100039.91;;;23.75;41.62
42433;BME280;28071;48.232;20.668;2023-05-27T08:46:40;100044.16;;;24.00;40.88
42433;BME280;28071;48.232;20.668;2023-05-27T08:51:41;100037.16;;;23.94;40.35
42433;BME280;28071;48.232;20.668;2023-05-27T08:56:43;100041.50;;;24.65;39.54
42433;BME280;28071;48.232;20.668;2023-05-27T09:01:45;100056.25;;;24.45;40.53
42433;BME280;28071;48.232;20.668;2023-05-27T09:06:45;100038.97;;;24.17;40.10
42433;BME280;28071;48.232;20.668;2023-05-27T09:11:46;100043.47;;;24.08;39.35
42433;BME280;28071;48.232;20.668;2023-05-27T09:16:46;100036.47;;;23.88;40.97
42433;BME280;28071;48.232;20.668;2023-05-27T09:21:51;100030.38;;;23.53;40.95
42433;BME280;28071;48.232;20.668;2023-05-27T09:26:54;100022.44;;;23.14;41.52
42433;BME280;28071;48.232;20.668;2023-05-27T09:31:55;100020.53;;;22.91;41.25
42433;BME280;28071;48.232;20.668;2023-05-27T09:42:03;100010.81;;;22.56;40.93
42433;BME280;28071;48.232;20.668;2023-05-27T09:47:04;100028.34;;;22.68;41.41
42433;BME280;28071;48.232;20.668;2023-05-27T09:52:06;100032.22;;;22.57;42.24
42433;BME280;28071;48.232;20.668;2023-05-27T09:57:10;100036.88;;;22.86;42.91
42433;BME280;28071;48.232;20.668;2023-05-27T10:02:16;100003.97;;;22.63;41.72
42433;BME280;28071;48.232;20.668;2023-05-27T10:07:17;100003.06;;;22.73;41.42
42433;BME280;28071;48.232;20.668;2023-05-27T10:12:21;100028.34;;;23.21;41.64
42433;BME280;28071;48.232;20.668;2023-05-27T10:17:21;100026.16;;;23.42;41.14
42433;BME280;28071;48.232;20.668;2023-05-27T10:22:22;100021.31;;;23.63;40.27
42433;BME280;28071;48.232;20.668;2023-05-27T10:27:23;100017.16;;;23.47;39.75
42433;BME280;28071;48.232;20.668;2023-05-27T10:32:23;100017.22;;;23.85;40.52
42433;BME280;28071;48.232;20.668;2023-05-27T10:37:24;100012.75;;;24.45;38.79
42433;BME280;28071;48.232;20.668;2023-05-27T10:42:26;100009.13;;;25.10;37.36
42433;BME280;28071;48.232;20.668;2023-05-27T10:47:30;100002.06;;;25.86;37.30
42433;BME280;28071;48.232;20.668;2023-05-27T10:52:31;99997.84;;;26.25;36.02
42433;BME280;28071;48.232;20.668;2023-05-27T10:57:37;100000.31;;;26.58;35.50
42433;BME280;28071;48.232;20.668;2023-05-27T11:02:38;100000.25;;;26.80;35.03
42433;BME280;28071;48.232;20.668;2023-05-27T11:07:39;100003.66;;;26.86;33.99
42433;BME280;28071;48.232;20.668;2023-05-27T11:12:43;99974.63;;;26.59;34.34
42433;BME280;28071;48.232;20.668;2023-05-27T11:17:45;99992.00;;;27.51;33.84
42433;BME280;28071;48.232;20.668;2023-05-27T11:22:50;99987.94;;;27.57;33.24
42433;BME280;28071;48.232;20.668;2023-05-27T11:27:50;99990.13;;;27.20;33.19
42433;BME280;28071;48.232;20.668;2023-05-27T11:32:51;99977.50;;;27.50;32.66
42433;BME280;28071;48.232;20.668;2023-05-27T11:37:51;99963.91;;;27.68;32.86
42433;BME280;28071;48.232;20.668;2023-05-27T11:42:53;99964.34;;;27.87;31.77
42433;BME280;28071;48.232;20.668;2023-05-27T11:47:53;99990.09;;;27.86;32.97
42433;BME280;28071;48.232;20.668;2023-05-27T11:52:57;99982.00;;;28.33;32.34
42433;BME280;28071;48.232;20.668;2023-05-27T11:57:58;99982.03;;;28.71;32.04
42433;BME280;28071;48.232;20.668;2023-05-27T12:02:58;99951.03;;;28.58;31.26
42433;BME280;28071;48.232;20.668;2023-05-27T12:07:59;99963.88;;;28.66;30.63
42433;BME280;28071;48.232;20.668;2023-05-27T12:13:03;99960.94;;;28.42;30.66
42433;BME280;28071;48.232;20.668;2023-05-27T12:18:04;99956.84;;;28.48;30.82
42433;BME280;28071;48.232;20.668;2023-05-27T12:23:05;99952.81;;;28.54;30.04
42433;BME280;28071;48.232;20.668;2023-05-27T12:28:09;99948.97;;;28.85;30.39
42433;BME280;28071;48.232;20.668;2023-05-27T12:33:10;99922.66;;;29.01;30.21
42433;BME280;28071;48.232;20.668;2023-05-27T12:38:10;99920.19;;;28.49;30.05
42433;BME280;28071;48.232;20.668;2023-05-27T12:43:11;99940.28;;;28.91;29.80
42433;BME280;28071;48.232;20.668;2023-05-27T12:48:12;99917.84;;;28.98;30.37
42433;BME280;28071;48.232;20.668;2023-05-27T12:53:12;99927.13;;;28.76;30.02
42433;BME280;28071;48.232;20.668;2023-05-27T12:58:13;99919.69;;;29.36;28.93
42433;BME280;28071;48.232;20.668;2023-05-27T13:03:14;99901.69;;;29.89;28.80
42433;BME280;28071;48.232;20.668;2023-05-27T13:08:14;99887.16;;;29.88;28.54
42433;BME280;28071;48.232;20.668;2023-05-27T13:13:15;99917.81;;;30.35;27.65
42433;BME280;28071;48.232;20.668;2023-05-27T13:18:15;99894.56;;;30.21;27.63
42433;BME280;28071;48.232;20.668;2023-05-27T13:23:16;99882.44;;;30.09;27.72
42433;BME280;28071;48.232;20.668;2023-05-27T13:28:16;99891.38;;;30.19;27.51
42433;BME280;28071;48.232;20.668;2023-05-27T13:33:17;99878.78;;;29.72;27.72
42433;BME280;28071;48.232;20.668;2023-05-27T13:38:18;99880.50;;;29.77;27.36
42433;BME280;28071;48.232;20.668;2023-05-27T13:43:18;99875.59;;;29.82;27.83
42433;BME280;28071;48.232;20.668;2023-05-27T13:48:20;99878.72;;;29.60;27.52
42433;BME280;28071;48.232;20.668;2023-05-27T13:53:20;99870.63;;;29.22;27.74
42433;BME280;28071;48.232;20.668;2023-05-27T13:58:20;99867.44;;;29.41;28.39
42433;BME280;28071;48.232;20.668;2023-05-27T14:03:21;99858.28;;;29.16;28.61
42433;BME280;28071;48.232;20.668;2023-05-27T14:08:23;99857.75;;;29.22;28.82
42433;BME280;28071;48.232;20.668;2023-05-27T14:13:23;99829.34;;;29.27;28.54
42433;BME280;28071;48.232;20.668;2023-05-27T14:18:24;99822.97;;;29.35;28.38
42433;BME280;28071;48.232;20.668;2023-05-27T14:23:24;99840.97;;;29.24;28.29
42433;BME280;28071;48.232;20.668;2023-05-27T14:28:25;99842.66;;;28.95;28.60
42433;BME280;28071;48.232;20.668;2023-05-27T14:33:25;99834.38;;;29.04;28.75
42433;BME280;28071;48.232;20.668;2023-05-27T14:38:26;99842.50;;;28.62;28.56
42433;BME280;28071;48.232;20.668;2023-05-27T14:43:26;99829.72;;;28.45;28.72
42433;BME280;28071;48.232;20.668;2023-05-27T14:48:27;99817.56;;;28.34;28.88
42433;BME280;28071;48.232;20.668;2023-05-27T14:53:27;99825.09;;;28.29;29.51
42433;BME280;28071;48.232;20.668;2023-05-27T14:58:28;99810.78;;;28.32;29.15
42433;BME280;28071;48.232;20.668;2023-05-27T15:03:29;99819.00;;;28.23;28.96
42433;BME280;28071;48.232;20.668;2023-05-27T15:08:30;99803.19;;;28.37;29.37
42433;BME280;28071;48.232;20.668;2023-05-27T15:13:31;99810.72;;;28.02;29.79
42433;BME280;28071;48.232;20.668;2023-05-27T15:18:32;99817.59;;;28.17;28.92
42433;BME280;28071;48.232;20.668;2023-05-27T15:23:33;99822.47;;;28.03;29.40
42433;BME280;28071;48.232;20.668;2023-05-27T15:28:33;99815.31;;;27.63;29.79
42433;BME280;28071;48.232;20.668;2023-05-27T15:33:34;99817.25;;;27.63;29.36
42433;BME280;28071;48.232;20.668;2023-05-27T15:38:35;99818.72;;;27.43;30.09
42433;BME280;28071;48.232;20.668;2023-05-27T15:43:35;99826.78;;;27.31;29.33
42433;BME280;28071;48.232;20.668;2023-05-27T15:48:36;99824.53;;;27.07;30.49
42433;BME280;28071;48.232;20.668;2023-05-27T15:53:37;99820.97;;;27.41;30.39
42433;BME280;28071;48.232;20.668;2023-05-27T15:58:37;99819.66;;;26.95;31.24
42433;BME280;28071;48.232;20.668;2023-05-27T16:03:38;99809.44;;;26.44;31.94
42433;BME280;28071;48.232;20.668;2023-05-27T16:08:38;99806.69;;;25.95;32.04
42433;BME280;28071;48.232;20.668;2023-05-27T16:13:39;99816.53;;;25.60;33.19
42433;BME280;28071;48.232;20.668;2023-05-27T16:18:39;99798.78;;;24.82;34.70
42433;BME280;28071;48.232;20.668;2023-05-27T16:23:40;99820.88;;;24.39;35.73
42433;BME280;28071;48.232;20.668;2023-05-27T16:28:40;99822.59;;;23.75;36.58
42433;BME280;28071;48.232;20.668;2023-05-27T16:33:41;99817.09;;;23.29;37.92
42433;BME280;28071;48.232;20.668;2023-05-27T16:38:42;99836.00;;;23.34;37.81
42433;BME280;28071;48.232;20.668;2023-05-27T16:43:42;99837.75;;;22.87;38.31
42433;BME280;28071;48.232;20.668;2023-05-27T16:48:43;99844.22;;;22.91;38.49
42433;BME280;28071;48.232;20.668;2023-05-27T16:53:43;99838.13;;;22.56;39.22
42433;BME280;28071;48.232;20.668;2023-05-27T16:58:44;99845.75;;;22.54;39.77
42433;BME280;28071;48.232;20.668;2023-05-27T17:03:44;99845.75;;;22.30;40.47
42433;BME280;28071;48.232;20.668;2023-05-27T17:08:44;99850.78;;;22.13;41.34
42433;BME280;28071;48.232;20.668;2023-05-27T17:13:45;99861.00;;;21.92;41.86
42433;BME280;28071;48.232;20.668;2023-05-27T17:18:46;99867.53;;;21.57;42.18
42433;BME280;28071;48.232;20.668;2023-05-27T17:23:47;99880.09;;;21.38;43.16
42433;BME280;28071;48.232;20.668;2023-05-27T17:28:47;99881.56;;;21.15;43.72
42433;BME280;28071;48.232;20.668;2023-05-27T17:33:47;99888.41;;;20.97;44.38
42433;BME280;28071;48.232;20.668;2023-05-27T17:38:48;99887.94;;;20.85;44.85
42433;BME280;28071;48.232;20.668;2023-05-27T17:43:48;99895.28;;;20.79;45.60
42433;BME280;28071;48.232;20.668;2023-05-27T17:48:49;99897.25;;;20.38;45.12
42433;BME280;28071;48.232;20.668;2023-05-27T17:53:49;99884.03;;;20.26;45.11
42433;BME280;28071;48.232;20.668;2023-05-27T17:58:52;99902.41;;;20.09;45.07
42433;BME280;28071;48.232;20.668;2023-05-27T18:03:53;99906.75;;;19.84;44.58
42433;BME280;28071;48.232;20.668;2023-05-27T18:08:53;99904.84;;;19.70;44.55
42433;BME280;28071;48.232;20.668;2023-05-27T18:13:54;99902.63;;;19.31;45.17
42433;BME280;28071;48.232;20.668;2023-05-27T18:18:54;99920.13;;;19.23;45.00
42433;BME280;28071;48.232;20.668;2023-05-27T18:23:54;99917.91;;;19.10;45.61
42433;BME280;28071;48.232;20.668;2023-05-27T18:28:55;99923.28;;;19.00;45.89
42433;BME280;28071;48.232;20.668;2023-05-27T18:33:56;99922.91;;;18.81;46.41
42433;BME280;28071;48.232;20.668;2023-05-27T18:38:56;99934.94;;;18.63;46.97
42433;BME280;28071;48.232;20.668;2023-05-27T18:43:57;99942.41;;;18.51;47.13
42433;BME280;28071;48.232;20.668;2023-05-27T18:48:57;99950.41;;;18.41;47.68
42433;BME280;28071;48.232;20.668;2023-05-27T18:53:58;99951.06;;;18.21;48.89
42433;BME280;28071;48.232;20.668;2023-05-27T18:58:58;99964.72;;;18.09;49.23
42433;BME280;28071;48.232;20.668;2023-05-27T19:03:59;99967.03;;;17.95;49.66
42433;BME280;28071;48.232;20.668;2023-05-27T19:09:01;99968.03;;;17.84;49.44
42433;BME280;28071;48.232;20.668;2023-05-27T19:14:03;99977.03;;;17.73;49.08
42433;BME280;28071;48.232;20.668;2023-05-27T19:19:03;99961.19;;;17.50;48.84
42433;BME280;28071;48.232;20.668;2023-05-27T19:24:03;99957.06;;;17.42;48.29
42433;BME280;28071;48.232;20.668;2023-05-27T19:29:04;99975.44;;;17.28;48.70
42433;BME280;28071;48.232;20.668;2023-05-27T19:34:05;99935.66;;;17.03;48.16
42433;BME280;28071;48.232;20.668;2023-05-27T19:39:06;99955.78;;;17.01;48.50
42433;BME280;28071;48.232;20.668;2023-05-27T19:44:06;99963.63;;;17.07;48.58
42433;BME280;28071;48.232;20.668;2023-05-27T19:49:07;99949.16;;;16.86;49.52
42433;BME280;28071;48.232;20.668;2023-05-27T19:54:08;99948.47;;;16.57;50.74
42433;BME280;28071;48.232;20.668;2023-05-27T19:59:08;99968.38;;;16.61;49.29
42433;BME280;28071;48.232;20.668;2023-05-27T20:04:09;99971.66;;;16.30;52.23
42433;BME280;28071;48.232;20.668;2023-05-27T20:09:10;99972.88;;;16.22;48.25
42433;BME280;28071;48.232;20.668;2023-05-27T20:14:10;99937.84;;;15.95;48.25
42433;BME280;28071;48.232;20.668;2023-05-27T20:19:11;99965.50;;;16.13;50.89
42433;BME280;28071;48.232;20.668;2023-05-27T20:24:12;99973.53;;;15.96;51.79
42433;BME280;28071;48.232;20.668;2023-05-27T20:29:12;99977.56;;;15.81;51.43
42433;BME280;28071;48.232;20.668;2023-05-27T20:34:13;99983.09;;;15.92;52.39
42433;BME280;28071;48.232;20.668;2023-05-27T20:39:13;99953.75;;;15.68;49.71
42433;BME280;28071;48.232;20.668;2023-05-27T20:44:13;99982.13;;;15.81;51.47
42433;BME280;28071;48.232;20.668;2023-05-27T20:49:14;99973.31;;;15.69;50.18
42433;BME280;28071;48.232;20.668;2023-05-27T20:54:15;99973.03;;;15.82;49.70
42433;BME280;28071;48.232;20.668;2023-05-27T20:59:15;99973.59;;;15.84;49.78
42433;BME280;28071;48.232;20.668;2023-05-27T21:04:15;99966.75;;;15.76;50.32
42433;BME280;28071;48.232;20.668;2023-05-27T21:09:16;99951.41;;;15.60;50.22
42433;BME280;28071;48.232;20.668;2023-05-27T21:14:16;99967.38;;;15.67;50.78
42433;BME280;28071;48.232;20.668;2023-05-27T21:19:17;99969.00;;;15.68;50.96
42433;BME280;28071;48.232;20.668;2023-05-27T21:24:17;99969.50;;;15.65;50.94
42433;BME280;28071;48.232;20.668;2023-05-27T21:29:18;99971.00;;;15.61;52.43
42433;BME280;28071;48.232;20.668;2023-05-27T21:34:18;99968.47;;;15.54;53.52
42433;BME280;28071;48.232;20.668;2023-05-27T21:39:19;99963.97;;;15.43;53.30
42433;BME280;28071;48.232;20.668;2023-05-27T21:44:19;99964.19;;;15.41;54.27
42433;BME280;28071;48.232;20.668;2023-05-27T21:49:19;99963.31;;;15.24;57.60
42433;BME280;28071;48.232;20.668;2023-05-27T21:54:20;99957.19;;;15.12;56.92
42433;BME280;28071;48.232;20.668;2023-05-27T21:59:20;99950.09;;;15.06;57.28
42433;BME280;28071;48.232;20.668;2023-05-27T22:04:21;99946.25;;;15.02;58.95
42433;BME280;28071;48.232;20.668;2023-05-27T22:09:21;99955.03;;;14.97;58.88
42433;BME280;28071;48.232;20.668;2023-05-27T22:14:23;99942.66;;;14.96;59.45
42433;BME280;28071;48.232;20.668;2023-05-27T22:19:24;99940.81;;;14.96;59.14
42433;BME280;28071;48.232;20.668;2023-05-27T22:24:24;99945.25;;;14.91;60.18
42433;BME280;28071;48.232;20.668;2023-05-27T22:29:27;99926.97;;;14.88;60.09
42433;BME280;28071;48.232;20.668;2023-05-27T22:34:27;99947.81;;;14.97;60.17
42433;BME280;28071;48.232;20.668;2023-05-27T22:39:28;99948.28;;;14.83;62.16
42433;BME280;28071;48.232;20.668;2023-05-27T22:44:28;99942.94;;;14.83;61.30
42433;BME280;28071;48.232;20.668;2023-05-27T22:49:29;99939.22;;;14.84;61.48
42433;BME280;28071;48.232;20.668;2023-05-27T22:54:32;99923.97;;;14.73;62.49
42433;BME280;28071;48.232;20.668;2023-05-27T22:59:32;99902.94;;;14.53;63.33
42433;BME280;28071;48.232;20.668;2023-05-27T23:04:33;99908.88;;;14.55;64.59
42433;BME280;28071;48.232;20.668;2023-05-27T23:09:33;99894.78;;;14.48;65.86
42433;BME280;28071;48.232;20.668;2023-05-27T23:14:34;99915.69;;;14.27;69.90
42433;BME280;28071;48.232;20.668;2023-05-27T23:19:34;99901.63;;;13.97;73.36
42433;BME280;28071;48.232;20.668;2023-05-27T23:24:35;99900.56;;;13.86;73.55
42433;BME280;28071;48.232;20.668;2023-05-27T23:29:35;99893.56;;;13.62;76.55
42433;BME280;28071;48.232;20.668;2023-05-27T23:34:36;99889.13;;;13.55;76.87
42433;BME280;28071;48.232;20.668;2023-05-27T23:39:36;99897.47;;;13.47;78.96
42433;BME280;28071;48.232;20.668;2023-05-27T23:44:37;99898.91;;;13.13;80.77
42433;BME280;28071;48.232;20.668;2023-05-27T23:49:37;99894.66;;;12.94;82.71
42433;BME280;28071;48.232;20.668;2023-05-27T23:54:38;99896.81;;;12.85;84.70
42433;BME280;28071;48.232;20.668;2023-05-27T23:59:38;99889.78;;;12.72;85.93
